createdAt,value
2018-02-15T00:00:06.031Z,100170.50
2018-02-15T00:02:33.547Z,100175.25
2018-02-15T00:05:01.051Z,100180.89
2018-02-15T00:07:28.545Z,100185.27
2018-02-15T00:09:56.074Z,100191.41
2018-02-15T00:12:23.584Z,100193.19
2018-02-15T00:14:51.084Z,100199.30
2018-02-15T00:17:18.604Z,100196.30
2018-02-15T00:19:46.099Z,100201.62
2018-02-15T00:22:13.619Z,100213.89
2018-02-15T00:24:41.195Z,100217.39
2018-02-15T00:27:08.691Z,100219.63
2018-02-15T00:29:36.190Z,100218.03
2018-02-15T00:32:03.697Z,100211.59
2018-02-15T00:34:31.201Z,100204.80
2018-02-15T00:36:58.675Z,100215.70
2018-02-15T00:39:26.172Z,100210.56
2018-02-15T00:41:53.683Z,100212.80
2018-02-15T00:44:21.199Z,100212.23
2018-02-15T00:46:48.718Z,100210.84
2018-02-15T00:49:16.218Z,100217.18
2018-02-15T00:51:43.713Z,100221.34
2018-02-15T00:54:11.215Z,100229.05
2018-02-15T00:56:38.730Z,100225.45
2018-02-15T00:59:06.266Z,100222.34
2018-02-15T01:01:33.792Z,100239.11
2018-02-15T01:04:01.279Z,100233.79
2018-02-15T01:06:28.772Z,100240.59
2018-02-15T01:08:56.280Z,100243.91
2018-02-15T01:11:23.773Z,100242.81
2018-02-15T01:13:51.279Z,100244.78
2018-02-15T01:16:18.778Z,100243.78
2018-02-15T01:18:46.288Z,100238.04
2018-02-15T01:21:13.789Z,100250.33
2018-02-15T01:23:41.294Z,100252.77
2018-02-15T01:26:08.814Z,100255.16
2018-02-15T01:28:36.299Z,100251.92
2018-02-15T01:31:03.786Z,100256.23
2018-02-15T01:33:31.287Z,100254.00
2018-02-15T01:35:58.775Z,100249.98
2018-02-15T01:38:26.281Z,100253.33
2018-02-15T01:40:53.783Z,100253.72
2018-02-15T01:43:21.292Z,100258.41
2018-02-15T01:45:48.799Z,100261.84
2018-02-15T01:48:16.295Z,100254.02
2018-02-15T01:50:43.784Z,100251.84
2018-02-15T01:53:11.276Z,100262.12
2018-02-15T01:55:38.766Z,100268.16
2018-02-15T01:58:06.281Z,100264.17
2018-02-15T02:00:33.788Z,100261.11
2018-02-15T02:03:01.275Z,100274.54
2018-02-15T02:05:28.761Z,100283.64
2018-02-15T02:07:56.254Z,100288.45
2018-02-15T02:10:23.772Z,100282.85
2018-02-15T02:12:51.270Z,100290.66
2018-02-15T02:15:18.773Z,100285.94
2018-02-15T02:17:46.274Z,100303.17
2018-02-15T02:20:13.773Z,100306.88
2018-02-15T02:22:41.274Z,100301.84
2018-02-15T02:25:08.848Z,100313.99
2018-02-15T02:27:36.330Z,100319.77
2018-02-15T02:30:03.837Z,100334.73
2018-02-15T02:32:31.367Z,100339.02
2018-02-15T02:34:58.869Z,100341.06
2018-02-15T02:37:26.378Z,100332.89
2018-02-15T02:39:53.879Z,100329.20
2018-02-15T02:42:21.398Z,100337.68
2018-02-15T02:44:48.915Z,100345.16
2018-02-15T02:47:16.415Z,100359.54
2018-02-15T02:49:43.904Z,100335.36
2018-02-15T02:52:11.414Z,100349.34
2018-02-15T02:54:38.930Z,100346.98
2018-02-15T02:57:06.472Z,100359.84
2018-02-15T02:59:33.991Z,100357.56
2018-02-15T03:02:01.494Z,100367.89
2018-02-15T03:04:28.984Z,100369.11
2018-02-15T03:06:56.490Z,100366.37
2018-02-15T03:09:24.011Z,100374.87
2018-02-15T03:11:51.506Z,100369.30
2018-02-15T03:14:18.970Z,100377.48
2018-02-15T03:16:46.487Z,100375.54
2018-02-15T03:19:13.991Z,100378.19
2018-02-15T03:21:41.500Z,100388.82
2018-02-15T03:24:08.999Z,100399.29
2018-02-15T03:26:36.486Z,100403.66
2018-02-15T03:29:03.999Z,100413.83
2018-02-15T03:31:31.499Z,100416.08
2018-02-15T03:33:59.000Z,100426.20
2018-02-15T03:36:26.526Z,100427.55
2018-02-15T03:38:54.008Z,100425.88
2018-02-15T03:41:21.531Z,100429.89
2018-02-15T03:43:49.031Z,100428.75
2018-02-15T03:46:16.560Z,100431.45
2018-02-15T03:48:44.044Z,100434.97
2018-02-15T03:51:11.558Z,100433.30
2018-02-15T03:53:39.020Z,100433.70
2018-02-15T03:56:06.551Z,100444.53
2018-02-15T03:58:34.047Z,100445.35
2018-02-15T04:01:01.531Z,100442.23
2018-02-15T04:03:29.020Z,100436.08
2018-02-15T04:05:56.536Z,100438.55
2018-02-15T04:08:23.996Z,100444.90
2018-02-15T04:10:51.511Z,100454.27
2018-02-15T04:13:19.012Z,100471.48
2018-02-15T04:15:46.505Z,100478.23
2018-02-15T04:18:14.031Z,100471.98
2018-02-15T04:20:41.537Z,100481.32
2018-02-15T04:23:09.140Z,100484.99
2018-02-15T04:25:36.773Z,100486.02
2018-02-15T04:28:04.267Z,100494.75
2018-02-15T04:30:31.763Z,100499.61
2018-02-15T04:32:59.258Z,100500.04
2018-02-15T04:35:26.755Z,100506.56
2018-02-15T04:37:54.248Z,100508.54
2018-02-15T04:40:21.735Z,100512.53
2018-02-15T04:42:49.251Z,100521.36
2018-02-15T04:45:16.741Z,100524.13
2018-02-15T04:47:44.238Z,100521.33
2018-02-15T04:50:11.731Z,100531.87
2018-02-15T04:52:39.226Z,100537.31
2018-02-15T04:55:06.712Z,100549.83
2018-02-15T04:57:34.220Z,100559.66
2018-02-15T05:00:01.723Z,100566.25
2018-02-15T05:02:29.215Z,100577.14
2018-02-15T05:04:56.732Z,100584.05
2018-02-15T05:07:24.250Z,100592.08
2018-02-15T05:09:51.746Z,100595.48
2018-02-15T05:12:19.250Z,100601.03
2018-02-15T05:14:46.751Z,100604.88
2018-02-15T05:17:14.243Z,100608.27
2018-02-15T05:19:41.744Z,100609.53
2018-02-15T05:22:09.258Z,100610.33
2018-02-15T05:24:36.771Z,100616.45
2018-02-15T05:27:04.262Z,100620.75
2018-02-15T05:29:31.772Z,100629.42
2018-02-15T05:31:59.280Z,100633.33
2018-02-15T05:34:26.807Z,100648.44
2018-02-15T05:36:54.310Z,100653.83
2018-02-15T05:39:21.809Z,100651.23
2018-02-15T05:41:49.308Z,100665.09
2018-02-15T05:44:16.784Z,100653.48
2018-02-15T05:46:44.275Z,100654.89
2018-02-15T05:49:11.791Z,100664.08
2018-02-15T05:51:39.312Z,100669.69
2018-02-15T05:54:06.802Z,100669.19
2018-02-15T05:56:34.310Z,100671.73
2018-02-15T05:59:01.812Z,100689.34
2018-02-15T06:01:29.323Z,100686.23
2018-02-15T06:03:56.854Z,100692.27
2018-02-15T06:06:24.356Z,100694.88
2018-02-15T06:08:51.887Z,100699.27
2018-02-15T06:11:19.394Z,100701.05
2018-02-15T06:13:46.880Z,100709.33
2018-02-15T06:16:14.498Z,100718.48
2018-02-15T06:18:42.167Z,100719.91
2018-02-15T06:21:09.667Z,100717.86
2018-02-15T06:23:37.165Z,100724.36
2018-02-15T06:26:05.817Z,100733.05
2018-02-15T06:28:33.323Z,100733.50
2018-02-15T06:31:00.822Z,100737.81
2018-02-15T06:33:28.314Z,100742.05
2018-02-15T06:35:55.809Z,100748.50
2018-02-15T06:38:23.319Z,100760.55
2018-02-15T06:40:50.882Z,100754.91
2018-02-15T06:43:18.376Z,100764.33
2018-02-15T06:45:45.871Z,100774.69
2018-02-15T06:48:13.356Z,100769.39
2018-02-15T06:50:41.380Z,100771.92
2018-02-15T06:53:08.902Z,100771.38
2018-02-15T06:55:36.434Z,100778.25
2018-02-15T06:58:03.911Z,100783.02
2018-02-15T07:00:31.426Z,100792.62
2018-02-15T07:02:58.946Z,100804.48
2018-02-15T07:05:27.190Z,100795.59
2018-02-15T07:07:55.427Z,100803.80
2018-02-15T07:10:24.610Z,100813.77
2018-02-15T07:12:52.716Z,100826.36
2018-02-15T07:15:20.203Z,100848.88
2018-02-15T07:17:47.709Z,100850.70
2018-02-15T07:20:15.219Z,100862.87
2018-02-15T07:22:42.708Z,100872.34
2018-02-15T07:25:10.198Z,100876.27
2018-02-15T07:27:37.681Z,100875.40
2018-02-15T07:30:05.166Z,100885.73
2018-02-15T07:32:32.657Z,100891.34
2018-02-15T07:35:00.154Z,100887.41
2018-02-15T07:37:27.646Z,100898.94
2018-02-15T07:39:55.115Z,100904.94
2018-02-15T07:42:22.616Z,100915.19
2018-02-15T07:44:50.131Z,100904.38
2018-02-15T07:47:17.622Z,100907.86
2018-02-15T07:49:45.255Z,100923.05
2018-02-15T07:52:12.775Z,100916.16
2018-02-15T07:54:40.282Z,100925.72
2018-02-15T07:57:07.761Z,100930.14
2018-02-15T07:59:35.271Z,100949.23
2018-02-15T08:02:02.748Z,100945.02
2018-02-15T08:04:30.235Z,100951.05
2018-02-15T08:06:57.714Z,100977.48
2018-02-15T08:09:25.197Z,100978.80
2018-02-15T08:11:52.680Z,101003.01
2018-02-15T08:14:20.172Z,101014.05
2018-02-15T08:16:47.659Z,101022.33
2018-02-15T08:19:15.142Z,101046.52
2018-02-15T08:21:42.647Z,101078.22
2018-02-15T08:24:10.149Z,101081.84
2018-02-15T08:26:37.655Z,101088.72
2018-02-15T08:29:05.135Z,101085.42
2018-02-15T08:31:32.581Z,101088.55
2018-02-15T08:34:00.102Z,101096.46
2018-02-15T08:36:27.593Z,101080.52
2018-02-15T08:38:55.074Z,101057.70
2018-02-15T08:41:22.562Z,101078.00
2018-02-15T08:43:50.064Z,101080.11
2018-02-15T08:46:17.550Z,101078.59
2018-02-15T08:48:45.026Z,101083.77
2018-02-15T08:51:12.519Z,101096.73
2018-02-15T08:53:39.999Z,101093.67
2018-02-15T08:56:07.497Z,101109.94
2018-02-15T08:58:34.997Z,101112.00
2018-02-15T09:01:02.499Z,101116.17
2018-02-15T09:03:30.025Z,101113.88
2018-02-15T09:05:57.503Z,101111.19
2018-02-15T09:08:25.003Z,101110.18
2018-02-15T09:10:52.495Z,101109.94
2018-02-15T09:13:19.974Z,101113.13
2018-02-15T09:15:47.476Z,101110.27
2018-02-15T09:18:14.964Z,101113.44
2018-02-15T09:20:42.463Z,101117.02
2018-02-15T09:23:09.986Z,101122.84
2018-02-15T09:25:37.481Z,101127.44
2018-02-15T09:28:04.986Z,101134.09
2018-02-15T09:30:32.490Z,101148.52
2018-02-15T09:32:59.993Z,101154.30
2018-02-15T09:35:27.507Z,101154.63
2018-02-15T09:37:54.998Z,101156.20
2018-02-15T09:40:22.528Z,101161.73
2018-02-15T09:42:50.110Z,101162.00
2018-02-15T09:45:17.611Z,101161.84
2018-02-15T09:47:45.095Z,101169.63
2018-02-15T09:50:12.682Z,101170.53
2018-02-15T09:52:40.167Z,101176.59
2018-02-15T09:55:07.664Z,101180.06
2018-02-15T09:57:35.177Z,101185.20
2018-02-15T10:00:02.677Z,101176.95
2018-02-15T10:02:30.192Z,101190.36
2018-02-15T10:04:57.719Z,101193.72
2018-02-15T10:07:25.221Z,101192.77
2018-02-15T10:09:52.719Z,101208.63
2018-02-15T10:12:20.206Z,101208.11
2018-02-15T10:14:47.707Z,101204.20
2018-02-15T10:17:15.203Z,101215.80
2018-02-15T10:19:42.810Z,101216.64
2018-02-15T10:22:10.288Z,101223.87
2018-02-15T10:24:37.768Z,101221.95
2018-02-15T10:27:05.267Z,101226.47
2018-02-15T10:29:32.759Z,101224.06
2018-02-15T10:32:00.267Z,101236.46
2018-02-15T10:34:27.776Z,101257.65
2018-02-15T10:36:55.276Z,101240.17
2018-02-15T10:39:22.781Z,101243.97
2018-02-15T10:41:50.283Z,101251.22
2018-02-15T10:44:17.795Z,101254.64
2018-02-15T10:46:45.299Z,101274.11
2018-02-15T10:49:12.791Z,101277.89
2018-02-15T10:51:40.311Z,101261.16
2018-02-15T10:54:07.829Z,101279.17
2018-02-15T10:56:35.385Z,101275.64
2018-02-15T10:59:02.883Z,101283.88
2018-02-15T11:01:35.897Z,101292.16
2018-02-15T11:04:04.387Z,101298.35
2018-02-15T11:06:31.881Z,101301.54
2018-02-15T11:08:59.384Z,101300.75
2018-02-15T11:11:26.871Z,101299.04
2018-02-15T11:13:54.380Z,101309.01
2018-02-15T11:16:21.882Z,101313.76
2018-02-15T11:18:49.376Z,101322.76
2018-02-15T11:21:16.875Z,101331.33
2018-02-15T11:23:44.362Z,101329.08
2018-02-15T11:26:11.880Z,101323.37
2018-02-15T11:28:39.448Z,101335.06
2018-02-15T11:31:06.953Z,101332.43
2018-02-15T11:33:34.462Z,101336.75
2018-02-15T11:36:01.962Z,101331.48
2018-02-15T11:38:29.476Z,101334.44
2018-02-15T11:40:56.999Z,101347.88
2018-02-15T11:43:24.495Z,101344.80
2018-02-15T11:45:52.001Z,101349.92
2018-02-15T11:48:19.511Z,101352.77
2018-02-15T11:50:47.008Z,101362.91
2018-02-15T11:53:14.553Z,101359.00
2018-02-15T11:55:42.040Z,101360.77
2018-02-15T11:58:09.548Z,101362.98
2018-02-15T12:00:37.039Z,101368.03
2018-02-15T12:03:04.527Z,101383.34
2018-02-15T12:05:32.214Z,101373.70
2018-02-15T12:07:59.823Z,101378.04
2018-02-15T12:10:27.316Z,101387.16
2018-02-15T12:12:55.661Z,101404.06
2018-02-15T12:15:23.168Z,101403.98
2018-02-15T12:17:50.650Z,101401.31
2018-02-15T12:20:18.148Z,101433.02
2018-02-15T12:22:45.650Z,101419.78
2018-02-15T12:25:13.165Z,101410.90
2018-02-15T12:27:40.668Z,101426.25
2018-02-15T12:30:08.163Z,101414.73
2018-02-15T12:32:35.710Z,101423.66
2018-02-15T12:35:03.247Z,101409.17
2018-02-15T12:37:30.738Z,101430.06
2018-02-15T12:39:58.226Z,101428.44
2018-02-15T12:42:25.724Z,101437.70
2018-02-15T12:44:53.319Z,101441.85
2018-02-15T12:47:20.923Z,101443.05
2018-02-15T12:49:48.427Z,101437.53
2018-02-15T12:52:15.932Z,101447.72
2018-02-15T12:54:43.478Z,101447.95
2018-02-15T12:57:10.975Z,101443.66
2018-02-15T12:59:38.514Z,101443.74
2018-02-15T13:02:06.099Z,101434.38
2018-02-15T13:04:33.706Z,101439.67
2018-02-15T13:07:01.238Z,101447.07
2018-02-15T13:09:28.758Z,101454.64
2018-02-15T13:11:56.297Z,101458.74
2018-02-15T13:14:23.855Z,101448.39
2018-02-15T13:17:07.080Z,101462.33
2018-02-15T13:19:46.317Z,101462.22
2018-02-15T13:22:25.462Z,101466.23
2018-02-15T13:24:52.971Z,101466.27
2018-02-15T13:27:21.453Z,101469.95
2018-02-15T13:29:48.942Z,101473.87
2018-02-15T13:32:16.559Z,101478.45
2018-02-15T13:34:44.140Z,101480.78
2018-02-15T13:37:12.292Z,101479.21
2018-02-15T13:39:40.040Z,101480.14
2018-02-15T13:42:07.566Z,101482.31
2018-02-15T13:44:35.084Z,101478.47
2018-02-15T13:47:02.598Z,101487.56
2018-02-15T13:49:30.105Z,101483.83
2018-02-15T13:51:57.603Z,101485.34
2018-02-15T13:54:25.119Z,101492.73
2018-02-15T13:56:52.611Z,101493.27
2018-02-15T13:59:20.124Z,101493.23
2018-02-15T14:01:47.667Z,101496.20
2018-02-15T14:04:15.168Z,101494.23
2018-02-15T14:06:42.717Z,101504.21
2018-02-15T14:09:10.221Z,101498.34
2018-02-15T14:11:37.753Z,101498.30
2018-02-15T14:14:05.304Z,101507.73
2018-02-15T14:16:32.800Z,101505.02
2018-02-15T14:19:00.322Z,101513.50
2018-02-15T14:21:27.837Z,101509.43
2018-02-15T14:23:55.335Z,101519.59
2018-02-15T14:26:22.819Z,101520.10
2018-02-15T14:28:50.330Z,101522.32
2018-02-15T14:31:17.857Z,101526.17
2018-02-15T14:33:45.371Z,101534.63
2018-02-15T14:36:12.912Z,101528.80
2018-02-15T14:38:40.407Z,101531.08
2018-02-15T14:41:07.898Z,101531.22
2018-02-15T14:43:35.394Z,101540.80
2018-02-15T14:46:02.875Z,101539.13
2018-02-15T14:48:30.378Z,101544.33
2018-02-15T14:50:57.884Z,101555.41
2018-02-15T14:53:25.382Z,101551.17
2018-02-15T14:55:52.884Z,101559.20
2018-02-15T14:58:20.419Z,101558.34
2018-02-15T15:00:47.954Z,101558.69
2018-02-15T15:03:15.437Z,101564.74
2018-02-15T15:05:42.943Z,101571.08
2018-02-15T15:08:10.439Z,101588.31
2018-02-15T15:10:37.944Z,101572.80
2018-02-15T15:13:05.442Z,101578.95
2018-02-15T15:15:32.936Z,101577.38
2018-02-15T15:18:00.439Z,101584.22
2018-02-15T15:20:27.931Z,101578.87
2018-02-15T15:22:55.434Z,101591.67
2018-02-15T15:25:23.013Z,101605.39
2018-02-15T15:27:50.509Z,101603.84
2018-02-15T15:30:18.028Z,101597.34
2018-02-15T15:32:45.530Z,101602.31
2018-02-15T15:35:13.048Z,101610.23
2018-02-15T15:37:40.558Z,101608.41
2018-02-15T15:40:08.068Z,101615.55
2018-02-15T15:42:35.604Z,101614.35
2018-02-15T15:45:03.118Z,101615.12
2018-02-15T15:47:30.626Z,101612.53
2018-02-15T15:49:58.127Z,101617.31
2018-02-15T15:52:25.652Z,101611.83
2018-02-15T15:54:53.288Z,101630.25
2018-02-15T15:57:20.838Z,101652.93
2018-02-15T15:59:48.371Z,101662.17
2018-02-15T16:02:15.915Z,101649.55
2018-02-15T16:04:43.433Z,101642.30
2018-02-15T16:07:10.984Z,101644.08
2018-02-15T16:09:38.497Z,101647.20
2018-02-15T16:12:06.000Z,101648.09
2018-02-15T16:14:33.527Z,101660.51
2018-02-15T16:17:01.020Z,101654.36
2018-02-15T16:19:28.520Z,101656.00
2018-02-15T16:21:56.058Z,101669.20
2018-02-15T16:24:23.589Z,101668.85
2018-02-15T16:26:51.104Z,101671.02
2018-02-15T16:29:18.693Z,101674.23
2018-02-15T16:31:46.197Z,101680.19
2018-02-15T16:34:13.756Z,101683.23
2018-02-15T16:36:41.277Z,101685.13
2018-02-15T16:39:08.779Z,101679.98
2018-02-15T16:41:36.305Z,101682.50
2018-02-15T16:44:03.884Z,101690.50
2018-02-15T16:46:31.403Z,101702.13
2018-02-15T16:48:58.907Z,101707.50
2018-02-15T16:51:26.502Z,101697.67
2018-02-15T16:53:54.032Z,101703.86
2018-02-15T16:56:21.580Z,101701.29
2018-02-15T16:58:49.116Z,101716.14
2018-02-15T17:01:16.882Z,101713.83
2018-02-15T17:03:44.435Z,101710.70
2018-02-15T17:06:11.964Z,101717.00
2018-02-15T17:08:39.500Z,101715.59
2018-02-15T17:11:07.135Z,101714.86
2018-02-15T17:13:34.661Z,101714.97
2018-02-15T17:16:02.223Z,101709.98
2018-02-15T17:18:29.751Z,101713.50
2018-02-15T17:20:58.454Z,101717.53
2018-02-15T17:23:26.069Z,101722.40
2018-02-15T17:25:53.656Z,101721.59
2018-02-15T17:28:21.286Z,101729.39
2018-02-15T17:30:48.821Z,101729.56
2018-02-15T17:33:16.378Z,101731.67
2018-02-15T17:35:43.999Z,101736.86
2018-02-15T17:38:11.621Z,101738.16
2018-02-15T17:40:39.130Z,101738.20
2018-02-15T17:43:06.637Z,101754.20
2018-02-15T17:45:34.180Z,101758.66
2018-02-15T17:48:01.686Z,101762.52
2018-02-15T17:50:29.189Z,101765.98
2018-02-15T17:52:56.679Z,101777.17
2018-02-15T17:55:24.170Z,101777.61
2018-02-15T17:57:51.686Z,101778.09
2018-02-15T18:00:19.235Z,101787.18
2018-02-15T18:02:46.795Z,101795.87
2018-02-15T18:05:14.481Z,101812.30
2018-02-15T18:07:42.041Z,101789.83
2018-02-15T18:10:10.104Z,101791.61
2018-02-15T18:12:38.932Z,101809.81
2018-02-15T18:15:06.482Z,101805.98
2018-02-15T18:17:34.107Z,101818.95
2018-02-15T18:20:01.619Z,101815.54
2018-02-15T18:22:29.128Z,101820.30
2018-02-15T18:24:56.653Z,101823.81
2018-02-15T18:27:24.137Z,101835.08
2018-02-15T18:29:51.630Z,101834.23
2018-02-15T18:32:19.302Z,101842.88
2018-02-15T18:34:47.488Z,101855.02
2018-02-15T18:37:15.132Z,101862.47
2018-02-15T18:39:43.580Z,101859.02
2018-02-15T18:42:11.357Z,101859.11
2018-02-15T18:44:38.883Z,101865.22
2018-02-15T18:47:06.435Z,101873.08
2018-02-15T18:49:33.935Z,101871.88
2018-02-15T18:52:02.652Z,101876.67
2018-02-15T18:54:30.237Z,101880.95
2018-02-15T18:56:57.755Z,101887.81
2018-02-15T18:59:25.329Z,101889.97
2018-02-15T19:01:52.871Z,101897.36
2018-02-15T19:04:20.407Z,101896.02
2018-02-15T19:06:47.875Z,101900.77
2018-02-15T19:09:15.404Z,101905.95
2018-02-15T19:11:42.980Z,101894.73
2018-02-15T19:14:10.565Z,101903.38
2018-02-15T19:16:38.127Z,101901.20
2018-02-15T19:19:05.668Z,101898.63
2018-02-15T19:21:33.167Z,101911.19
2018-02-15T19:24:00.660Z,101906.44
2018-02-15T19:26:28.147Z,101904.28
2018-02-15T19:28:55.658Z,101910.33
2018-02-15T19:31:23.164Z,101912.53
2018-02-15T19:33:50.646Z,101913.78
2018-02-15T19:36:18.140Z,101918.97
2018-02-15T19:38:45.662Z,101921.56
2018-02-15T19:41:13.162Z,101922.77
2018-02-15T19:43:40.724Z,101924.96
2018-02-15T19:46:08.233Z,101927.89
2018-02-15T19:48:35.726Z,101926.98
2018-02-15T19:51:03.223Z,101930.41
2018-02-15T19:53:30.719Z,101930.74
2018-02-15T19:55:58.223Z,101934.59
2018-02-15T19:58:25.776Z,101923.77
2018-02-15T20:00:53.296Z,101929.78
2018-02-15T20:03:20.784Z,101939.29
2018-02-15T20:05:48.297Z,101956.19
2018-02-15T20:08:15.838Z,101947.50
2018-02-15T20:10:43.363Z,101949.27
2018-02-15T20:13:11.089Z,101956.97
2018-02-15T20:15:44.187Z,101952.59
2018-02-15T20:18:11.703Z,101942.66
2018-02-15T20:20:39.224Z,101955.57
2018-02-15T20:23:06.736Z,101957.29
2018-02-15T20:25:34.275Z,101958.50
2018-02-15T20:28:07.313Z,101954.61
2018-02-15T20:30:34.856Z,101958.02
2018-02-15T20:33:02.361Z,101967.09
2018-02-15T20:35:29.902Z,101957.98
2018-02-15T20:38:02.889Z,101970.89
2018-02-15T20:40:38.779Z,101973.88
2018-02-15T20:43:06.251Z,101977.76
2018-02-15T20:45:33.773Z,101981.20
2018-02-15T20:48:01.279Z,101986.36
2018-02-15T20:50:34.316Z,102001.09
2018-02-15T20:53:07.441Z,101998.55
2018-02-15T20:55:40.439Z,101995.57
2018-02-15T20:58:07.967Z,102006.00
2018-02-15T21:00:35.516Z,102003.89
2018-02-15T21:03:03.011Z,102006.56
2018-02-15T21:05:30.513Z,102014.34
2018-02-15T21:07:58.019Z,102013.05
2018-02-15T21:10:25.515Z,102017.38
2018-02-15T21:12:53.018Z,102044.64
2018-02-15T21:15:20.617Z,102040.92
2018-02-15T21:17:48.137Z,102039.19
2018-02-15T21:20:15.804Z,102032.32
2018-02-15T21:22:43.352Z,102036.73
2018-02-15T21:25:10.918Z,102044.63
2018-02-15T21:27:38.418Z,102055.47
2018-02-15T21:30:05.916Z,102069.80
2018-02-15T21:32:33.427Z,102079.84
2018-02-15T21:35:00.939Z,102079.95
2018-02-15T21:37:28.430Z,102086.13
2018-02-15T21:39:55.911Z,102092.61
2018-02-15T21:42:23.424Z,102096.53
2018-02-15T21:44:51.770Z,102100.84
2018-02-15T21:47:19.260Z,102103.90
2018-02-15T21:49:46.835Z,102104.37
2018-02-15T21:52:14.332Z,102109.14
2018-02-15T21:54:41.837Z,102113.49
2018-02-15T21:57:09.341Z,102113.95
2018-02-15T21:59:36.844Z,102119.14
2018-02-15T22:02:04.331Z,102117.41
2018-02-15T22:04:31.837Z,102125.21
2018-02-15T22:06:59.329Z,102131.69
2018-02-15T22:09:26.876Z,102133.44
2018-02-15T22:11:54.385Z,102136.92
2018-02-15T22:14:21.921Z,102142.53
2018-02-15T22:16:49.418Z,102136.06
2018-02-15T22:19:16.940Z,102148.55
2018-02-15T22:21:44.430Z,102147.69
2018-02-15T22:24:12.638Z,102139.02
2018-02-15T22:26:40.143Z,102135.11
2018-02-15T22:29:07.628Z,102142.81
2018-02-15T22:31:35.126Z,102150.55
2018-02-15T22:34:02.656Z,102150.55
2018-02-15T22:36:30.148Z,102153.11
2018-02-15T22:38:57.660Z,102155.31
2018-02-15T22:41:25.167Z,102158.76
2018-02-15T22:43:52.672Z,102156.60
2018-02-15T22:46:20.199Z,102158.36
2018-02-15T22:48:47.720Z,102162.24
2018-02-15T22:51:15.219Z,102158.78
2018-02-15T22:53:43.651Z,102165.70
2018-02-15T22:56:11.223Z,102164.40
2018-02-15T22:58:39.595Z,102163.53
2018-02-15T23:01:07.107Z,102165.70
2018-02-15T23:03:34.587Z,102175.59
2018-02-15T23:06:02.073Z,102165.67
2018-02-15T23:08:29.562Z,102171.68
2018-02-15T23:10:57.055Z,102172.55
2018-02-15T23:13:24.568Z,102175.97
2018-02-15T23:15:52.070Z,102180.28
2018-02-15T23:18:19.563Z,102182.41
2018-02-15T23:20:47.083Z,102181.12
2018-02-15T23:23:14.567Z,102184.57
2018-02-15T23:25:42.068Z,102183.28
2018-02-15T23:28:09.547Z,102185.44
2018-02-15T23:30:37.035Z,102190.59
2018-02-15T23:33:04.540Z,102196.20
2018-02-15T23:35:32.039Z,102195.73
2018-02-15T23:37:59.529Z,102198.77
2018-02-15T23:40:27.010Z,102202.25
2018-02-15T23:42:54.494Z,102193.21
2018-02-15T23:45:22.016Z,102205.77
2018-02-15T23:47:49.527Z,102205.39
2018-02-15T23:50:17.015Z,102217.50
2018-02-15T23:52:44.510Z,102224.41
2018-02-15T23:55:11.999Z,102229.59
2018-02-15T23:57:39.497Z,102235.17
